sensor_id;sensor_type;location;lat;lon;timestamp;temperature;humidity
55331;DHT22;58851;42.984;20.336;2024-02-16T00:00:24;0.40;6451.20
55331;DHT22;58851;42.984;20.336;2024-02-16T00:02:50;0.40;6451.20
55331;DHT22;58851;42.984;20.336;2024-02-16T00:05:19;0.40;6451.20
55331;DHT22;58851;42.984;20.336;2024-02-16T00:07:45;0.30;6451.20
55331;DHT22;58851;42.984;20.336;2024-02-16T00:10:14;0.30;6451.20
55331;DHT22;58851;42.984;20.336;2024-02-16T00:12:40;0.20;6451.20
55331;DHT22;58851;42.984;20.336;2024-02-16T00:15:07;0.10;6451.20
55331;DHT22;58851;42.984;20.336;2024-02-16T00:17:33;0.10;6451.20
55331;DHT22;58851;42.984;20.336;2024-02-16T00:19:59;0.20;6451.20
55331;DHT22;58851;42.984;20.336;2024-02-16T00:22:25;0.20;6451.20
55331;DHT22;58851;42.984;20.336;2024-02-16T00:24:51;0.10;6451.20
55331;DHT22;58851;42.984;20.336;2024-02-16T00:27:18;0.20;6451.20
55331;DHT22;58851;42.984;20.336;2024-02-16T00:29:45;0.10;6451.20
55331;DHT22;58851;42.984;20.336;2024-02-16T00:32:14;0.10;6451.20
55331;DHT22;58851;42.984;20.336;2024-02-16T00:34:40;0.00;6451.20
55331;DHT22;58851;42.984;20.336;2024-02-16T00:37:07;0.00;6451.20
55331;DHT22;58851;42.984;20.336;2024-02-16T00:39:38;0.00;6451.20
55331;DHT22;58851;42.984;20.336;2024-02-16T00:42:07;0.00;6451.20
55331;DHT22;58851;42.984;20.336;2024-02-16T00:44:33;12.90;6451.20
55331;DHT22;58851;42.984;20.336;2024-02-16T00:46:58;12.90;6451.20
55331;DHT22;58851;42.984;20.336;2024-02-16T00:49:24;12.90;6451.20
55331;DHT22;58851;42.984;20.336;2024-02-16T00:51:50;12.90;6451.20
55331;DHT22;58851;42.984;20.336;2024-02-16T00:54:19;12.90;6451.20
55331;DHT22;58851;42.984;20.336;2024-02-16T00:56:45;13.00;6451.20
55331;DHT22;58851;42.984;20.336;2024-02-16T00:59:12;13.00;6451.20
55331;DHT22;58851;42.984;20.336;2024-02-16T01:01:38;13.00;6451.20
55331;DHT22;58851;42.984;20.336;2024-02-16T01:04:04;13.10;6451.20
55331;DHT22;58851;42.984;20.336;2024-02-16T01:06:30;13.10;6451.20
55331;DHT22;58851;42.984;20.336;2024-02-16T01:08:56;13.10;6451.20
55331;DHT22;58851;42.984;20.336;2024-02-16T01:11:22;13.10;6451.20
55331;DHT22;58851;42.984;20.336;2024-02-16T01:13:50;13.10;6451.20
55331;DHT22;58851;42.984;20.336;2024-02-16T01:16:17;13.10;6451.20
55331;DHT22;58851;42.984;20.336;2024-02-16T01:18:43;13.20;6451.20
55331;DHT22;58851;42.984;20.336;2024-02-16T01:21:10;13.20;6451.20
55331;DHT22;58851;42.984;20.336;2024-02-16T01:23:36;13.30;6451.20
55331;DHT22;58851;42.984;20.336;2024-02-16T01:26:02;13.30;6451.20
55331;DHT22;58851;42.984;20.336;2024-02-16T01:28:28;13.40;6451.20
55331;DHT22;58851;42.984;20.336;2024-02-16T01:30:54;13.40;6451.20
55331;DHT22;58851;42.984;20.336;2024-02-16T01:33:22;13.40;6451.20
55331;DHT22;58851;42.984;20.336;2024-02-16T01:35:47;13.30;6451.20
55331;DHT22;58851;42.984;20.336;2024-02-16T01:38:13;13.40;6451.20
55331;DHT22;58851;42.984;20.336;2024-02-16T01:40:40;13.40;6451.20
55331;DHT22;58851;42.984;20.336;2024-02-16T01:43:05;13.40;6451.20
55331;DHT22;58851;42.984;20.336;2024-02-16T01:45:31;13.50;6451.20
55331;DHT22;58851;42.984;20.336;2024-02-16T01:47:57;13.60;6451.20
55331;DHT22;58851;42.984;20.336;2024-02-16T01:50:24;13.60;6451.20
55331;DHT22;58851;42.984;20.336;2024-02-16T01:52:50;13.60;6451.20
55331;DHT22;58851;42.984;20.336;2024-02-16T01:55:16;13.60;6451.20
55331;DHT22;58851;42.984;20.336;2024-02-16T01:57:47;13.60;6451.20
55331;DHT22;58851;42.984;20.336;2024-02-16T02:00:14;13.60;6451.20
55331;DHT22;58851;42.984;20.336;2024-02-16T02:02:41;13.60;6451.20
55331;DHT22;58851;42.984;20.336;2024-02-16T02:05:09;13.60;6451.20
55331;DHT22;58851;42.984;20.336;2024-02-16T02:07:35;13.60;6451.20
55331;DHT22;58851;42.984;20.336;2024-02-16T02:10:01;13.60;6451.20
55331;DHT22;58851;42.984;20.336;2024-02-16T02:12:27;13.60;6451.20
55331;DHT22;58851;42.984;20.336;2024-02-16T02:14:52;13.60;6451.20
55331;DHT22;58851;42.984;20.336;2024-02-16T02:17:18;13.70;6451.20
55331;DHT22;58851;42.984;20.336;2024-02-16T02:19:48;13.70;6451.20
55331;DHT22;58851;42.984;20.336;2024-02-16T02:22:20;13.70;6451.20
55331;DHT22;58851;42.984;20.336;2024-02-16T02:24:47;13.70;6451.20
55331;DHT22;58851;42.984;20.336;2024-02-16T02:27:14;13.70;6451.20
55331;DHT22;58851;42.984;20.336;2024-02-16T02:29:41;13.70;6451.20
55331;DHT22;58851;42.984;20.336;2024-02-16T02:32:07;13.70;6451.20
55331;DHT22;58851;42.984;20.336;2024-02-16T02:34:33;38.40;6451.20
55331;DHT22;58851;42.984;20.336;2024-02-16T02:36:59;38.40;6451.20
55331;DHT22;58851;42.984;20.336;2024-02-16T02:39:25;38.40;6451.20
55331;DHT22;58851;42.984;20.336;2024-02-16T02:41:51;38.40;6451.20
55331;DHT22;58851;42.984;20.336;2024-02-16T02:44:18;38.40;6451.20
55331;DHT22;58851;42.984;20.336;2024-02-16T02:46:45;38.50;6528.00
55331;DHT22;58851;42.984;20.336;2024-02-16T02:49:10;38.50;6451.20
55331;DHT22;58851;42.984;20.336;2024-02-16T02:51:36;38.50;6451.20
55331;DHT22;58851;42.984;20.336;2024-02-16T02:54:02;38.50;6451.20
55331;DHT22;58851;42.984;20.336;2024-02-16T02:56:28;38.50;6451.20
55331;DHT22;58851;42.984;20.336;2024-02-16T02:58:53;38.50;6451.20
55331;DHT22;58851;42.984;20.336;2024-02-16T03:01:19;38.50;6451.20
55331;DHT22;58851;42.984;20.336;2024-02-16T03:03:46;38.50;6451.20
55331;DHT22;58851;42.984;20.336;2024-02-16T03:06:12;38.60;6451.20
55331;DHT22;58851;42.984;20.336;2024-02-16T03:08:39;38.60;6451.20
55331;DHT22;58851;42.984;20.336;2024-02-16T03:11:05;38.60;6451.20
55331;DHT22;58851;42.984;20.336;2024-02-16T03:13:32;38.70;6451.20
55331;DHT22;58851;42.984;20.336;2024-02-16T03:15:58;38.70;6451.20
55331;DHT22;58851;42.984;20.336;2024-02-16T03:18:24;38.70;6451.20
55331;DHT22;58851;42.984;20.336;2024-02-16T03:20:50;38.70;6451.20
55331;DHT22;58851;42.984;20.336;2024-02-16T03:23:16;38.70;6451.20
55331;DHT22;58851;42.984;20.336;2024-02-16T03:25:42;38.70;6451.20
55331;DHT22;58851;42.984;20.336;2024-02-16T03:28:13;38.70;6451.20
55331;DHT22;58851;42.984;20.336;2024-02-16T03:30:39;38.70;6451.20
55331;DHT22;58851;42.984;20.336;2024-02-16T03:33:05;38.70;6451.20
55331;DHT22;58851;42.984;20.336;2024-02-16T03:35:30;38.70;6451.20
55331;DHT22;58851;42.984;20.336;2024-02-16T03:37:56;38.70;6451.20
55331;DHT22;58851;42.984;20.336;2024-02-16T03:40:24;38.70;6451.20
55331;DHT22;58851;42.984;20.336;2024-02-16T03:42:50;38.80;6451.20
55331;DHT22;58851;42.984;20.336;2024-02-16T03:45:16;38.80;6451.20
55331;DHT22;58851;42.984;20.336;2024-02-16T03:47:42;38.80;6451.20
55331;DHT22;58851;42.984;20.336;2024-02-16T03:50:09;38.80;6451.20
55331;DHT22;58851;42.984;20.336;2024-02-16T03:52:34;38.90;6451.20
55331;DHT22;58851;42.984;20.336;2024-02-16T03:55:00;38.90;6451.20
55331;DHT22;58851;42.984;20.336;2024-02-16T03:57:26;38.90;6451.20
55331;DHT22;58851;42.984;20.336;2024-02-16T03:59:52;38.90;6451.20
55331;DHT22;58851;42.984;20.336;2024-02-16T04:02:18;39.00;6451.20
55331;DHT22;58851;42.984;20.336;2024-02-16T04:04:44;39.00;6451.20
55331;DHT22;58851;42.984;20.336;2024-02-16T04:07:10;39.00;6451.20
55331;DHT22;58851;42.984;20.336;2024-02-16T04:09:36;39.00;6451.20
55331;DHT22;58851;42.984;20.336;2024-02-16T04:12:02;39.00;6451.20
55331;DHT22;58851;42.984;20.336;2024-02-16T04:14:29;39.00;6451.20
55331;DHT22;58851;42.984;20.336;2024-02-16T04:16:56;39.00;6451.20
55331;DHT22;58851;42.984;20.336;2024-02-16T04:19:28;39.20;6451.20
55331;DHT22;58851;42.984;20.336;2024-02-16T04:21:54;39.20;6451.20
55331;DHT22;58851;42.984;20.336;2024-02-16T04:24:20;39.20;6451.20
55331;DHT22;58851;42.984;20.336;2024-02-16T04:26:46;39.20;6451.20
55331;DHT22;58851;42.984;20.336;2024-02-16T04:29:11;39.20;6451.20
55331;DHT22;58851;42.984;20.336;2024-02-16T04:31:41;39.20;6451.20
55331;DHT22;58851;42.984;20.336;2024-02-16T04:34:08;39.20;6451.20
55331;DHT22;58851;42.984;20.336;2024-02-16T04:36:34;39.30;6451.20
55331;DHT22;58851;42.984;20.336;2024-02-16T04:39:00;64.00;6451.20
55331;DHT22;58851;42.984;20.336;2024-02-16T04:41:26;64.00;6528.00
55331;DHT22;58851;42.984;20.336;2024-02-16T04:43:52;64.00;128.00
55331;DHT22;58851;42.984;20.336;2024-02-16T04:46:19;64.10;409.60
55331;DHT22;58851;42.984;20.336;2024-02-16T04:48:45;64.00;128.00
55331;DHT22;58851;42.984;20.336;2024-02-16T04:51:11;64.00;6502.40
55331;DHT22;58851;42.984;20.336;2024-02-16T04:53:37;64.00;6451.20
55331;DHT22;58851;42.984;20.336;2024-02-16T04:56:03;64.00;6451.20
55331;DHT22;58851;42.984;20.336;2024-02-16T04:58:30;64.00;6476.80
55331;DHT22;58851;42.984;20.336;2024-02-16T05:00:56;64.00;128.00
55331;DHT22;58851;42.984;20.336;2024-02-16T05:03:22;64.00;204.80
55331;DHT22;58851;42.984;20.336;2024-02-16T05:05:48;64.00;128.00
55331;DHT22;58851;42.984;20.336;2024-02-16T05:08:14;64.10;6451.20
55331;DHT22;58851;42.984;20.336;2024-02-16T05:10:40;64.10;128.00
55331;DHT22;58851;42.984;20.336;2024-02-16T05:13:06;64.00;6451.20
55331;DHT22;58851;42.984;20.336;2024-02-16T05:15:32;64.10;6451.20
55331;DHT22;58851;42.984;20.336;2024-02-16T05:17:58;64.10;6451.20
55331;DHT22;58851;42.984;20.336;2024-02-16T05:20:24;64.10;6476.80
55331;DHT22;58851;42.984;20.336;2024-02-16T05:22:51;64.10;6451.20
55331;DHT22;58851;42.984;20.336;2024-02-16T05:25:17;64.20;6451.20
55331;DHT22;58851;42.984;20.336;2024-02-16T05:27:45;64.20;128.00
55331;DHT22;58851;42.984;20.336;2024-02-16T05:30:13;64.20;6476.80
55331;DHT22;58851;42.984;20.336;2024-02-16T05:32:41;64.20;128.00
55331;DHT22;58851;42.984;20.336;2024-02-16T05:35:08;64.20;128.00
55331;DHT22;58851;42.984;20.336;2024-02-16T05:37:42;64.20;6476.80
55331;DHT22;58851;42.984;20.336;2024-02-16T05:40:15;64.20;6451.20
55331;DHT22;58851;42.984;20.336;2024-02-16T05:42:53;64.30;6502.40
55331;DHT22;58851;42.984;20.336;2024-02-16T05:45:19;64.20;6451.20
55331;DHT22;58851;42.984;20.336;2024-02-16T05:47:47;64.30;6451.20
55331;DHT22;58851;42.984;20.336;2024-02-16T05:50:15;64.30;6451.20
55331;DHT22;58851;42.984;20.336;2024-02-16T05:52:42;64.40;332.80
55331;DHT22;58851;42.984;20.336;2024-02-16T05:55:08;64.40;6451.20
55331;DHT22;58851;42.984;20.336;2024-02-16T05:57:37;64.40;128.00
55331;DHT22;58851;42.984;20.336;2024-02-16T06:00:05;64.30;179.20
55331;DHT22;58851;42.984;20.336;2024-02-16T06:02:34;64.30;179.20
55331;DHT22;58851;42.984;20.336;2024-02-16T06:05:01;64.30;128.00
55331;DHT22;58851;42.984;20.336;2024-02-16T06:07:28;64.20;6451.20
55331;DHT22;58851;42.984;20.336;2024-02-16T06:09:55;64.20;128.00
55331;DHT22;58851;42.984;20.336;2024-02-16T06:12:21;64.20;307.20
55331;DHT22;58851;42.984;20.336;2024-02-16T06:14:47;64.20;128.00
55331;DHT22;58851;42.984;20.336;2024-02-16T06:17:18;64.10;409.60
55331;DHT22;58851;42.984;20.336;2024-02-16T06:19:44;64.20;6528.00
55331;DHT22;58851;42.984;20.336;2024-02-16T06:22:10;64.10;128.00
55331;DHT22;58851;42.984;20.336;2024-02-16T06:24:36;64.10;128.00
55331;DHT22;58851;42.984;20.336;2024-02-16T06:27:02;64.00;6451.20
55331;DHT22;58851;42.984;20.336;2024-02-16T06:29:29;39.20;6476.80
55331;DHT22;58851;42.984;20.336;2024-02-16T06:31:56;39.20;6451.20
55331;DHT22;58851;42.984;20.336;2024-02-16T06:34:22;39.10;6451.20
55331;DHT22;58851;42.984;20.336;2024-02-16T06:36:48;39.00;6451.20
55331;DHT22;58851;42.984;20.336;2024-02-16T06:39:15;39.00;6451.20
55331;DHT22;58851;42.984;20.336;2024-02-16T06:41:46;38.90;6451.20
55331;DHT22;58851;42.984;20.336;2024-02-16T06:44:12;38.70;6451.20
55331;DHT22;58851;42.984;20.336;2024-02-16T06:46:38;38.70;6451.20
55331;DHT22;58851;42.984;20.336;2024-02-16T06:49:04;38.70;6451.20
55331;DHT22;58851;42.984;20.336;2024-02-16T06:51:30;38.60;6451.20
55331;DHT22;58851;42.984;20.336;2024-02-16T06:53:56;38.50;6451.20
55331;DHT22;58851;42.984;20.336;2024-02-16T06:56:21;38.50;6451.20
55331;DHT22;58851;42.984;20.336;2024-02-16T06:58:48;13.70;6451.20
55331;DHT22;58851;42.984;20.336;2024-02-16T07:01:14;13.70;6451.20
55331;DHT22;58851;42.984;20.336;2024-02-16T07:03:40;13.60;6451.20
55331;DHT22;58851;42.984;20.336;2024-02-16T07:06:07;13.50;6451.20
55331;DHT22;58851;42.984;20.336;2024-02-16T07:08:41;13.40;6451.20
55331;DHT22;58851;42.984;20.336;2024-02-16T07:11:07;13.30;6451.20
55331;DHT22;58851;42.984;20.336;2024-02-16T07:13:34;13.10;6451.20
55331;DHT22;58851;42.984;20.336;2024-02-16T07:16:00;13.00;6451.20
55331;DHT22;58851;42.984;20.336;2024-02-16T07:18:25;12.90;6451.20
55331;DHT22;58851;42.984;20.336;2024-02-16T07:20:51;0.00;6451.20
55331;DHT22;58851;42.984;20.336;2024-02-16T07:23:17;0.10;6451.20
55331;DHT22;58851;42.984;20.336;2024-02-16T07:25:43;0.20;6451.20
55331;DHT22;58851;42.984;20.336;2024-02-16T07:28:09;0.40;6451.20
55331;DHT22;58851;42.984;20.336;2024-02-16T07:30:35;0.50;6451.20
55331;DHT22;58851;42.984;20.336;2024-02-16T07:33:05;0.60;6451.20
55331;DHT22;58851;42.984;20.336;2024-02-16T07:35:33;0.80;6451.20
55331;DHT22;58851;42.984;20.336;2024-02-16T07:38:01;0.90;6451.20
55331;DHT22;58851;42.984;20.336;2024-02-16T07:40:27;25.60;6451.20
55331;DHT22;58851;42.984;20.336;2024-02-16T07:42:53;25.80;6451.20
55331;DHT22;58851;42.984;20.336;2024-02-16T07:45:20;25.90;6451.20
55331;DHT22;58851;42.984;20.336;2024-02-16T07:47:46;26.10;6451.20
55331;DHT22;58851;42.984;20.336;2024-02-16T07:50:12;26.20;6451.20
55331;DHT22;58851;42.984;20.336;2024-02-16T07:52:39;26.40;6451.20
55331;DHT22;58851;42.984;20.336;2024-02-16T07:55:08;26.40;6451.20
55331;DHT22;58851;42.984;20.336;2024-02-16T07:57:34;26.50;6451.20
55331;DHT22;58851;42.984;20.336;2024-02-16T08:00:00;51.20;6476.80
55331;DHT22;58851;42.984;20.336;2024-02-16T08:02:26;51.30;6476.80
55331;DHT22;58851;42.984;20.336;2024-02-16T08:04:52;51.40;6476.80
55331;DHT22;58851;42.984;20.336;2024-02-16T08:07:25;51.50;6476.80
55331;DHT22;58851;42.984;20.336;2024-02-16T08:09:52;51.70;6476.80
55331;DHT22;58851;42.984;20.336;2024-02-16T08:12:19;51.80;6476.80
55331;DHT22;58851;42.984;20.336;2024-02-16T08:14:52;51.90;6476.80
55331;DHT22;58851;42.984;20.336;2024-02-16T08:17:26;52.10;6476.80
55331;DHT22;58851;42.984;20.336;2024-02-16T08:19:53;52.10;6476.80
55331;DHT22;58851;42.984;20.336;2024-02-16T08:22:20;76.80;6476.80
55331;DHT22;58851;42.984;20.336;2024-02-16T08:24:46;76.90;6476.80
55331;DHT22;58851;42.984;20.336;2024-02-16T08:27:12;77.00;6476.80
55331;DHT22;58851;42.984;20.336;2024-02-16T08:29:41;77.10;6476.80
55331;DHT22;58851;42.984;20.336;2024-02-16T08:32:07;77.10;6476.80
55331;DHT22;58851;42.984;20.336;2024-02-16T08:34:35;77.30;6476.80
55331;DHT22;58851;42.984;20.336;2024-02-16T08:37:03;77.50;6476.80
55331;DHT22;58851;42.984;20.336;2024-02-16T08:39:30;77.70;6476.80
55331;DHT22;58851;42.984;20.336;2024-02-16T08:41:56;102.40;6476.80
55331;DHT22;58851;42.984;20.336;2024-02-16T08:44:22;102.50;6476.80
55331;DHT22;58851;42.984;20.336;2024-02-16T08:46:48;102.60;6476.80
55331;DHT22;58851;42.984;20.336;2024-02-16T08:49:15;102.60;6476.80
55331;DHT22;58851;42.984;20.336;2024-02-16T08:51:45;102.70;6476.80
55331;DHT22;58851;42.984;20.336;2024-02-16T08:54:10;102.80;6476.80
55331;DHT22;58851;42.984;20.336;2024-02-16T08:56:36;103.00;6476.80
55331;DHT22;58851;42.984;20.336;2024-02-16T08:59:05;103.10;6476.80
55331;DHT22;58851;42.984;20.336;2024-02-16T09:01:38;128.00;6502.40
55331;DHT22;58851;42.984;20.336;2024-02-16T09:04:07;128.00;6502.40
55331;DHT22;58851;42.984;20.336;2024-02-16T09:06:32;128.10;6502.40
55331;DHT22;58851;42.984;20.336;2024-02-16T09:09:00;128.20;6502.40
55331;DHT22;58851;42.984;20.336;2024-02-16T09:11:26;128.40;6502.40
55331;DHT22;58851;42.984;20.336;2024-02-16T09:13:53;128.60;6502.40
55331;DHT22;58851;42.984;20.336;2024-02-16T09:16:19;128.70;128.00
55331;DHT22;58851;42.984;20.336;2024-02-16T09:18:45;128.80;307.20
55331;DHT22;58851;42.984;20.336;2024-02-16T09:21:11;128.70;128.00
55331;DHT22;58851;42.984;20.336;2024-02-16T09:23:37;128.80;563.20
55331;DHT22;58851;42.984;20.336;2024-02-16T09:26:02;153.60;281.60
55331;DHT22;58851;42.984;20.336;2024-02-16T09:28:29;153.60;537.60
55331;DHT22;58851;42.984;20.336;2024-02-16T09:30:55;153.70;486.40
55331;DHT22;58851;42.984;20.336;2024-02-16T09:33:22;153.70;6502.40
55331;DHT22;58851;42.984;20.336;2024-02-16T09:35:48;153.90;6502.40
55331;DHT22;58851;42.984;20.336;2024-02-16T09:38:14;154.10;6502.40
55331;DHT22;58851;42.984;20.336;2024-02-16T09:40:40;154.40;6502.40
55331;DHT22;58851;42.984;20.336;2024-02-16T09:43:06;154.50;6502.40
55331;DHT22;58851;42.984;20.336;2024-02-16T09:45:33;179.30;6502.40
55331;DHT22;58851;42.984;20.336;2024-02-16T09:47:59;179.20;6502.40
55331;DHT22;58851;42.984;20.336;2024-02-16T09:50:25;179.30;6502.40
55331;DHT22;58851;42.984;20.336;2024-02-16T09:52:52;179.50;6502.40
55331;DHT22;58851;42.984;20.336;2024-02-16T09:55:19;179.60;6502.40
55331;DHT22;58851;42.984;20.336;2024-02-16T09:57:45;179.90;6502.40
55331;DHT22;58851;42.984;20.336;2024-02-16T10:00:12;179.90;6502.40
55331;DHT22;58851;42.984;20.336;2024-02-16T10:02:47;180.00;6502.40
55331;DHT22;58851;42.984;20.336;2024-02-16T10:05:21;204.80;6502.40
55331;DHT22;58851;42.984;20.336;2024-02-16T10:07:47;204.90;6502.40
55331;DHT22;58851;42.984;20.336;2024-02-16T10:10:23;180.10;6502.40
55331;DHT22;58851;42.984;20.336;2024-02-16T10:12:50;204.80;6502.40
55331;DHT22;58851;42.984;20.336;2024-02-16T10:15:20;204.90;6502.40
55331;DHT22;58851;42.984;20.336;2024-02-16T10:18:01;205.10;6502.40
55331;DHT22;58851;42.984;20.336;2024-02-16T10:20:27;205.30;6502.40
55331;DHT22;58851;42.984;20.336;2024-02-16T10:23:13;205.30;6502.40
55331;DHT22;58851;42.984;20.336;2024-02-16T10:25:39;205.50;6502.40
55331;DHT22;58851;42.984;20.336;2024-02-16T10:28:11;205.50;6502.40
55331;DHT22;58851;42.984;20.336;2024-02-16T10:30:41;205.60;6502.40
55331;DHT22;58851;42.984;20.336;2024-02-16T10:33:08;205.70;6502.40
55331;DHT22;58851;42.984;20.336;2024-02-16T10:35:36;205.70;6502.40
55331;DHT22;58851;42.984;20.336;2024-02-16T10:38:03;230.40;6502.40
55331;DHT22;58851;42.984;20.336;2024-02-16T10:40:38;230.50;6502.40
55331;DHT22;58851;42.984;20.336;2024-02-16T10:43:05;230.50;6502.40
55331;DHT22;58851;42.984;20.336;2024-02-16T10:45:35;230.70;6502.40
55331;DHT22;58851;42.984;20.336;2024-02-16T10:48:05;230.90;6502.40
55331;DHT22;58851;42.984;20.336;2024-02-16T10:50:36;230.90;6502.40
55331;DHT22;58851;42.984;20.336;2024-02-16T10:53:22;230.90;6502.40
55331;DHT22;58851;42.984;20.336;2024-02-16T10:55:50;231.10;6502.40
55331;DHT22;58851;42.984;20.336;2024-02-16T10:58:18;231.30;6502.40
55331;DHT22;58851;42.984;20.336;2024-02-16T11:00:54;256.10;6502.40
55331;DHT22;58851;42.984;20.336;2024-02-16T11:03:25;256.40;6502.40
55331;DHT22;58851;42.984;20.336;2024-02-16T11:05:52;256.60;6502.40
55331;DHT22;58851;42.984;20.336;2024-02-16T11:08:20;256.60;6502.40
55331;DHT22;58851;42.984;20.336;2024-02-16T11:11:00;256.70;6502.40
55331;DHT22;58851;42.984;20.336;2024-02-16T11:13:28;256.70;6502.40
55331;DHT22;58851;42.984;20.336;2024-02-16T11:16:01;256.90;6502.40
55331;DHT22;58851;42.984;20.336;2024-02-16T11:18:31;281.60;6528.00
55331;DHT22;58851;42.984;20.336;2024-02-16T11:21:04;281.80;6528.00
55331;DHT22;58851;42.984;20.336;2024-02-16T11:23:31;281.90;6528.00
55331;DHT22;58851;42.984;20.336;2024-02-16T11:26:00;282.00;6528.00
55331;DHT22;58851;42.984;20.336;2024-02-16T11:28:28;282.20;6528.00
55331;DHT22;58851;42.984;20.336;2024-02-16T11:30:56;282.40;6528.00
55331;DHT22;58851;42.984;20.336;2024-02-16T11:33:22;307.20;128.00
55331;DHT22;58851;42.984;20.336;2024-02-16T11:35:58;307.30;128.00
55331;DHT22;58851;42.984;20.336;2024-02-16T11:38:24;307.40;128.00
55331;DHT22;58851;42.984;20.336;2024-02-16T11:41:10;307.50;128.00
55331;DHT22;58851;42.984;20.336;2024-02-16T11:43:37;307.50;128.00
55331;DHT22;58851;42.984;20.336;2024-02-16T11:46:12;307.70;128.00
55331;DHT22;58851;42.984;20.336;2024-02-16T11:48:44;307.70;128.00
55331;DHT22;58851;42.984;20.336;2024-02-16T11:51:10;308.00;128.00
55331;DHT22;58851;42.984;20.336;2024-02-16T11:53:36;332.80;128.00
55331;DHT22;58851;42.984;20.336;2024-02-16T11:56:02;332.80;128.00
55331;DHT22;58851;42.984;20.336;2024-02-16T11:58:28;332.90;128.00
55331;DHT22;58851;42.984;20.336;2024-02-16T12:00:55;333.20;128.00
55331;DHT22;58851;42.984;20.336;2024-02-16T12:03:25;333.00;128.00
55331;DHT22;58851;42.984;20.336;2024-02-16T12:05:54;333.00;128.00
55331;DHT22;58851;42.984;20.336;2024-02-16T12:08:21;332.90;128.00
55331;DHT22;58851;42.984;20.336;2024-02-16T12:10:51;333.10;128.00
55331;DHT22;58851;42.984;20.336;2024-02-16T12:13:18;333.30;128.00
55331;DHT22;58851;42.984;20.336;2024-02-16T12:15:45;333.30;128.00
55331;DHT22;58851;42.984;20.336;2024-02-16T12:18:22;333.50;128.00
55331;DHT22;58851;42.984;20.336;2024-02-16T12:21:05;333.50;128.00
55331;DHT22;58851;42.984;20.336;2024-02-16T12:23:32;358.40;640.00
55331;DHT22;58851;42.984;20.336;2024-02-16T12:25:59;358.40;358.40
55331;DHT22;58851;42.984;20.336;2024-02-16T12:28:27;358.50;358.40
55331;DHT22;58851;42.984;20.336;2024-02-16T12:30:57;358.50;256.00
55331;DHT22;58851;42.984;20.336;2024-02-16T12:33:23;358.70;204.80
55331;DHT22;58851;42.984;20.336;2024-02-16T12:35:49;358.90;128.00
55331;DHT22;58851;42.984;20.336;2024-02-16T12:38:15;359.20;128.00
55331;DHT22;58851;42.984;20.336;2024-02-16T12:40:48;384.00;128.00
55331;DHT22;58851;42.984;20.336;2024-02-16T12:43:14;384.00;128.00
55331;DHT22;58851;42.984;20.336;2024-02-16T12:45:41;384.00;128.00
55331;DHT22;58851;42.984;20.336;2024-02-16T12:48:07;384.40;128.00
55331;DHT22;58851;42.984;20.336;2024-02-16T12:50:35;384.50;128.00
55331;DHT22;58851;42.984;20.336;2024-02-16T12:53:03;384.70;128.00
55331;DHT22;58851;42.984;20.336;2024-02-16T12:55:28;384.60;128.00
55331;DHT22;58851;42.984;20.336;2024-02-16T12:57:56;384.70;128.00
55331;DHT22;58851;42.984;20.336;2024-02-16T13:00:22;384.80;128.00
55331;DHT22;58851;42.984;20.336;2024-02-16T13:02:49;384.90;128.00
55331;DHT22;58851;42.984;20.336;2024-02-16T13:05:14;409.60;128.00
55331;DHT22;58851;42.984;20.336;2024-02-16T13:07:41;409.90;128.00
55331;DHT22;58851;42.984;20.336;2024-02-16T13:10:19;409.90;128.00
55331;DHT22;58851;42.984;20.336;2024-02-16T13:12:46;410.10;128.00
55331;DHT22;58851;42.984;20.336;2024-02-16T13:15:11;410.20;128.00
55331;DHT22;58851;42.984;20.336;2024-02-16T13:17:37;410.30;128.00
55331;DHT22;58851;42.984;20.336;2024-02-16T13:20:03;410.30;128.00
55331;DHT22;58851;42.984;20.336;2024-02-16T13:22:36;435.20;128.00
55331;DHT22;58851;42.984;20.336;2024-02-16T13:25:03;435.50;128.00
55331;DHT22;58851;42.984;20.336;2024-02-16T13:27:30;435.50;128.00
55331;DHT22;58851;42.984;20.336;2024-02-16T13:29:56;435.80;128.00
55331;DHT22;58851;42.984;20.336;2024-02-16T13:32:21;436.10;128.00
55331;DHT22;58851;42.984;20.336;2024-02-16T13:34:48;460.80;128.00
55331;DHT22;58851;42.984;20.336;2024-02-16T13:37:13;436.10;128.00
55331;DHT22;58851;42.984;20.336;2024-02-16T13:39:39;461.00;128.00
55331;DHT22;58851;42.984;20.336;2024-02-16T13:42:05;461.20;128.00
55331;DHT22;58851;42.984;20.336;2024-02-16T13:44:31;461.30;128.00
55331;DHT22;58851;42.984;20.336;2024-02-16T13:46:57;461.40;128.00
55331;DHT22;58851;42.984;20.336;2024-02-16T13:49:23;461.10;128.00
55331;DHT22;58851;42.984;20.336;2024-02-16T13:51:49;461.10;128.00
55331;DHT22;58851;42.984;20.336;2024-02-16T13:54:15;461.20;128.00
55331;DHT22;58851;42.984;20.336;2024-02-16T13:56:41;461.30;128.00
55331;DHT22;58851;42.984;20.336;2024-02-16T13:59:07;461.30;128.00
55331;DHT22;58851;42.984;20.336;2024-02-16T14:01:33;461.70;128.00
55331;DHT22;58851;42.984;20.336;2024-02-16T14:04:00;486.40;128.00
55331;DHT22;58851;42.984;20.336;2024-02-16T14:06:26;486.60;128.00
55331;DHT22;58851;42.984;20.336;2024-02-16T14:08:52;486.70;128.00
55331;DHT22;58851;42.984;20.336;2024-02-16T14:11:19;486.70;128.00
55331;DHT22;58851;42.984;20.336;2024-02-16T14:13:44;487.30;128.00
55331;DHT22;58851;42.984;20.336;2024-02-16T14:16:10;487.20;128.00
55331;DHT22;58851;42.984;20.336;2024-02-16T14:18:37;486.70;128.00
55331;DHT22;58851;42.984;20.336;2024-02-16T14:21:03;486.50;128.00
55331;DHT22;58851;42.984;20.336;2024-02-16T14:23:32;486.40;128.00
55331;DHT22;58851;42.984;20.336;2024-02-16T14:25:58;486.70;128.00
55331;DHT22;58851;42.984;20.336;2024-02-16T14:28:24;486.90;128.00
55331;DHT22;58851;42.984;20.336;2024-02-16T14:30:50;486.90;128.00
55331;DHT22;58851;42.984;20.336;2024-02-16T14:33:16;486.90;128.00
55331;DHT22;58851;42.984;20.336;2024-02-16T14:35:43;487.00;128.00
55331;DHT22;58851;42.984;20.336;2024-02-16T14:38:09;486.90;128.00
55331;DHT22;58851;42.984;20.336;2024-02-16T14:40:35;486.70;128.00
55331;DHT22;58851;42.984;20.336;2024-02-16T14:43:02;486.70;128.00
55331;DHT22;58851;42.984;20.336;2024-02-16T14:45:27;486.40;128.00
55331;DHT22;58851;42.984;20.336;2024-02-16T14:47:53;461.50;128.00